sensor_id;sensor_type;location;lat;lon;timestamp;pressure;altitude;pressure_sealevel;temperature;humidity
83691;BME280;73671;43.220;0.064;2024-01-25T00:01:20;99649.38;;;7.63;63.58
83691;BME280;73671;43.220;0.064;2024-01-25T00:03:46;99645.94;;;7.70;63.88
83691;BME280;73671;43.220;0.064;2024-01-25T00:06:11;99642.88;;;7.75;63.41
83691;BME280;73671;43.220;0.064;2024-01-25T00:08:36;99638.28;;;7.79;63.00
83691;BME280;73671;43.220;0.064;2024-01-25T00:11:02;99648.72;;;7.77;62.63
83691;BME280;73671;43.220;0.064;2024-01-25T00:13:28;99642.94;;;7.79;62.59
83691;BME280;73671;43.220;0.064;2024-01-25T00:15:54;99642.16;;;7.78;62.95
83691;BME280;73671;43.220;0.064;2024-01-25T00:18:20;99640.22;;;7.79;62.27
83691;BME280;73671;43.220;0.064;2024-01-25T00:20:45;99640.59;;;7.77;62.61
83691;BME280;73671;43.220;0.064;2024-01-25T00:23:11;99635.16;;;7.74;62.84
83691;BME280;73671;43.220;0.064;2024-01-25T00:25:36;99635.16;;;7.74;63.02
83691;BME280;73671;43.220;0.064;2024-01-25T00:28:02;99633.22;;;7.74;62.73
83691;BME280;73671;43.220;0.064;2024-01-25T00:30:27;99629.31;;;7.72;63.51
83691;BME280;73671;43.220;0.064;2024-01-25T00:32:53;99625.84;;;7.71;62.49
83691;BME280;73671;43.220;0.064;2024-01-25T00:35:18;99617.66;;;7.68;62.59
83691;BME280;73671;43.220;0.064;2024-01-25T00:37:44;99623.44;;;7.66;63.09
83691;BME280;73671;43.220;0.064;2024-01-25T00:40:10;99624.56;;;7.58;63.60
83691;BME280;73671;43.220;0.064;2024-01-25T00:42:42;99624.03;;;7.41;64.16
83691;BME280;73671;43.220;0.064;2024-01-25T00:45:08;99622.13;;;7.46;63.69
83691;BME280;73671;43.220;0.064;2024-01-25T00:47:34;99623.25;;;7.44;63.55
83691;BME280;73671;43.220;0.064;2024-01-25T00:50:00;99618.56;;;7.38;64.02
83691;BME280;73671;43.220;0.064;2024-01-25T00:52:25;99611.44;;;7.19;64.87
83691;BME280;73671;43.220;0.064;2024-01-25T00:54:51;99608.97;;;7.07;65.45
83691;BME280;73671;43.220;0.064;2024-01-25T00:57:17;99613.66;;;7.10;64.96
83691;BME280;73671;43.220;0.064;2024-01-25T00:59:42;99606.13;;;6.92;65.56
83691;BME280;73671;43.220;0.064;2024-01-25T01:02:11;99591.22;;;6.72;66.31
83691;BME280;73671;43.220;0.064;2024-01-25T01:04:37;99592.41;;;6.74;66.00
83691;BME280;73671;43.220;0.064;2024-01-25T01:07:03;99598.78;;;6.93;65.01
83691;BME280;73671;43.220;0.064;2024-01-25T01:09:29;99591.94;;;7.03;64.20
83691;BME280;73671;43.220;0.064;2024-01-25T01:11:54;99589.06;;;6.88;65.10
83691;BME280;73671;43.220;0.064;2024-01-25T01:14:19;99587.25;;;6.66;65.85
83691;BME280;73671;43.220;0.064;2024-01-25T01:16:45;99596.59;;;6.38;65.99
83691;BME280;73671;43.220;0.064;2024-01-25T01:19:10;99592.69;;;6.35;66.31
83691;BME280;73671;43.220;0.064;2024-01-25T01:21:36;99595.56;;;6.50;65.46
83691;BME280;73671;43.220;0.064;2024-01-25T01:24:02;99595.31;;;6.58;65.37
83691;BME280;73671;43.220;0.064;2024-01-25T01:26:27;99592.72;;;6.69;64.73
83691;BME280;73671;43.220;0.064;2024-01-25T01:28:52;99587.75;;;6.75;64.61
83691;BME280;73671;43.220;0.064;2024-01-25T01:31:18;99595.13;;;6.78;64.02
83691;BME280;73671;43.220;0.064;2024-01-25T01:33:43;99592.09;;;6.83;64.08
83691;BME280;73671;43.220;0.064;2024-01-25T01:36:09;99585.13;;;6.82;63.83
83691;BME280;73671;43.220;0.064;2024-01-25T01:38:34;99583.16;;;6.79;64.35
83691;BME280;73671;43.220;0.064;2024-01-25T01:40:59;99595.13;;;6.78;64.75
83691;BME280;73671;43.220;0.064;2024-01-25T01:43:25;99590.81;;;6.73;64.43
83691;BME280;73671;43.220;0.064;2024-01-25T01:45:50;99585.41;;;6.73;64.61
83691;BME280;73671;43.220;0.064;2024-01-25T01:48:16;99592.81;;;6.76;63.75
83691;BME280;73671;43.220;0.064;2024-01-25T01:50:43;99589.31;;;6.76;63.67
83691;BME280;73671;43.220;0.064;2024-01-25T01:53:10;99595.53;;;6.76;64.52
83691;BME280;73671;43.220;0.064;2024-01-25T01:55:36;99594.63;;;6.69;64.94
83691;BME280;73671;43.220;0.064;2024-01-25T01:58:01;99593.09;;;6.68;64.01
83691;BME280;73671;43.220;0.064;2024-01-25T02:00:30;99584.53;;;6.62;64.48
83691;BME280;73671;43.220;0.064;2024-01-25T02:02:55;99585.72;;;6.65;64.23
83691;BME280;73671;43.220;0.064;2024-01-25T02:05:22;99583.97;;;6.49;64.66
83691;BME280;73671;43.220;0.064;2024-01-25T02:07:48;99583.53;;;6.13;65.88
83691;BME280;73671;43.220;0.064;2024-01-25T02:10:13;99573.81;;;5.86;67.27
83691;BME280;73671;43.220;0.064;2024-01-25T02:12:39;99582.16;;;5.73;67.41
83691;BME280;73671;43.220;0.064;2024-01-25T02:15:04;99584.44;;;5.71;67.58
83691;BME280;73671;43.220;0.064;2024-01-25T02:17:30;99580.56;;;5.95;66.49
83691;BME280;73671;43.220;0.064;2024-01-25T02:19:55;99575.38;;;6.10;65.38
83691;BME280;73671;43.220;0.064;2024-01-25T02:22:21;99569.94;;;5.83;67.25
83691;BME280;73671;43.220;0.064;2024-01-25T02:24:46;99569.47;;;5.51;68.36
83691;BME280;73671;43.220;0.064;2024-01-25T02:27:11;99561.84;;;5.34;69.39
83691;BME280;73671;43.220;0.064;2024-01-25T02:29:37;99555.72;;;5.37;70.04
83691;BME280;73671;43.220;0.064;2024-01-25T02:32:03;99557.63;;;5.59;68.83
83691;BME280;73671;43.220;0.064;2024-01-25T02:34:28;99555.53;;;5.49;69.24
83691;BME280;73671;43.220;0.064;2024-01-25T02:36:53;99542.41;;;5.24;70.29
83691;BME280;73671;43.220;0.064;2024-01-25T02:39:19;99544.69;;;5.22;70.41
83691;BME280;73671;43.220;0.064;2024-01-25T02:41:44;99542.34;;;5.44;68.77
83691;BME280;73671;43.220;0.064;2024-01-25T02:44:11;99532.09;;;5.57;68.16
83691;BME280;73671;43.220;0.064;2024-01-25T02:46:37;99536.00;;;5.59;67.52
83691;BME280;73671;43.220;0.064;2024-01-25T02:49:03;99533.72;;;5.61;67.37
83691;BME280;73671;43.220;0.064;2024-01-25T02:51:28;99534.88;;;5.60;67.29
83691;BME280;73671;43.220;0.064;2024-01-25T02:53:54;99540.06;;;5.72;66.72
83691;BME280;73671;43.220;0.064;2024-01-25T02:56:19;99527.06;;;5.82;66.65
83691;BME280;73671;43.220;0.064;2024-01-25T02:58:45;99527.09;;;5.85;66.53
83691;BME280;73671;43.220;0.064;2024-01-25T03:01:10;99523.75;;;5.65;67.85
83691;BME280;73671;43.220;0.064;2024-01-25T03:03:35;99512.06;;;5.58;67.55
83691;BME280;73671;43.220;0.064;2024-01-25T03:06:02;99509.06;;;5.66;67.03
83691;BME280;73671;43.220;0.064;2024-01-25T03:08:27;99500.75;;;5.79;66.26
83691;BME280;73671;43.220;0.064;2024-01-25T03:10:53;99496.41;;;5.70;67.05
83691;BME280;73671;43.220;0.064;2024-01-25T03:13:18;99489.66;;;5.57;67.31
83691;BME280;73671;43.220;0.064;2024-01-25T03:15:44;99484.66;;;5.32;69.12
83691;BME280;73671;43.220;0.064;2024-01-25T03:18:10;99494.16;;;5.00;69.54
83691;BME280;73671;43.220;0.064;2024-01-25T03:20:36;99483.56;;;4.87;70.77
83691;BME280;73671;43.220;0.064;2024-01-25T03:23:01;99484.94;;;5.01;69.49
83691;BME280;73671;43.220;0.064;2024-01-25T03:25:28;99479.47;;;5.20;68.57
83691;BME280;73671;43.220;0.064;2024-01-25T03:27:53;99471.16;;;5.32;68.01
83691;BME280;73671;43.220;0.064;2024-01-25T03:30:18;99468.50;;;5.36;67.67
83691;BME280;73671;43.220;0.064;2024-01-25T03:32:47;99466.81;;;5.24;68.47
83691;BME280;73671;43.220;0.064;2024-01-25T03:35:12;99465.97;;;5.20;69.00
83691;BME280;73671;43.220;0.064;2024-01-25T03:37:38;99460.22;;;4.99;70.02
83691;BME280;73671;43.220;0.064;2024-01-25T03:40:03;99458.31;;;4.76;71.45
83691;BME280;73671;43.220;0.064;2024-01-25T03:42:30;99449.63;;;4.86;70.95
83691;BME280;73671;43.220;0.064;2024-01-25T03:44:55;99452.34;;;5.13;69.53
83691;BME280;73671;43.220;0.064;2024-01-25T03:47:20;99445.31;;;5.31;68.34
83691;BME280;73671;43.220;0.064;2024-01-25T03:49:46;99452.66;;;5.08;69.87
83691;BME280;73671;43.220;0.064;2024-01-25T03:52:11;99448.47;;;4.87;70.00
83691;BME280;73671;43.220;0.064;2024-01-25T03:54:36;99443.41;;;5.09;68.81
83691;BME280;73671;43.220;0.064;2024-01-25T03:57:02;99435.84;;;5.18;68.19
83691;BME280;73671;43.220;0.064;2024-01-25T03:59:28;99439.91;;;5.31;67.55
83691;BME280;73671;43.220;0.064;2024-01-25T04:01:53;99436.16;;;5.40;67.24
83691;BME280;73671;43.220;0.064;2024-01-25T04:04:19;99433.13;;;5.45;67.56
83691;BME280;73671;43.220;0.064;2024-01-25T04:06:44;99432.00;;;5.46;67.35
83691;BME280;73671;43.220;0.064;2024-01-25T04:09:13;99433.22;;;5.52;66.56
83691;BME280;73671;43.220;0.064;2024-01-25T04:11:40;99436.34;;;5.54;66.96
83691;BME280;73671;43.220;0.064;2024-01-25T04:14:05;99440.91;;;5.50;66.91
83691;BME280;73671;43.220;0.064;2024-01-25T04:16:32;99437.84;;;5.51;66.47
83691;BME280;73671;43.220;0.064;2024-01-25T04:18:57;99432.88;;;5.53;67.06
83691;BME280;73671;43.220;0.064;2024-01-25T04:21:23;99441.00;;;5.57;66.64
83691;BME280;73671;43.220;0.064;2024-01-25T04:23:48;99444.13;;;5.59;67.25
83691;BME280;73671;43.220;0.064;2024-01-25T04:26:15;99434.16;;;5.63;66.69
83691;BME280;73671;43.220;0.064;2024-01-25T04:28:41;99433.41;;;5.66;66.64
83691;BME280;73671;43.220;0.064;2024-01-25T04:31:07;99429.59;;;5.67;67.21
83691;BME280;73671;43.220;0.064;2024-01-25T04:33:35;99425.72;;;5.68;66.78
83691;BME280;73671;43.220;0.064;2024-01-25T04:36:00;99431.56;;;5.70;67.40
83691;BME280;73671;43.220;0.064;2024-01-25T04:38:26;99433.50;;;5.73;66.50
83691;BME280;73671;43.220;0.064;2024-01-25T04:40:51;99438.91;;;5.73;66.59
83691;BME280;73671;43.220;0.064;2024-01-25T04:43:17;99439.69;;;5.74;66.72
83691;BME280;73671;43.220;0.064;2024-01-25T04:45:42;99431.91;;;5.69;67.16
83691;BME280;73671;43.220;0.064;2024-01-25T04:48:07;99440.44;;;5.71;66.95
83691;BME280;73671;43.220;0.064;2024-01-25T04:50:33;99440.84;;;5.73;66.04
83691;BME280;73671;43.220;0.064;2024-01-25T04:53:01;99444.31;;;5.73;66.39
83691;BME280;73671;43.220;0.064;2024-01-25T04:55:27;99443.91;;;5.71;66.86
83691;BME280;73671;43.220;0.064;2024-01-25T04:57:52;99432.69;;;5.69;66.56
83691;BME280;73671;43.220;0.064;2024-01-25T05:00:20;99428.06;;;5.70;66.69
83691;BME280;73671;43.220;0.064;2024-01-25T05:02:47;99428.00;;;5.66;66.70
83691;BME280;73671;43.220;0.064;2024-01-25T05:05:12;99434.91;;;5.60;66.90
83691;BME280;73671;43.220;0.064;2024-01-25T05:07:37;99431.53;;;5.40;68.09
83691;BME280;73671;43.220;0.064;2024-01-25T05:10:03;99433.13;;;5.18;68.02
83691;BME280;73671;43.220;0.064;2024-01-25T05:12:28;99435.09;;;5.21;68.22
83691;BME280;73671;43.220;0.064;2024-01-25T05:14:54;99423.59;;;5.24;67.73
83691;BME280;73671;43.220;0.064;2024-01-25T05:17:19;99434.47;;;5.05;69.70
83691;BME280;73671;43.220;0.064;2024-01-25T05:19:45;99427.84;;;4.99;69.54
83691;BME280;73671;43.220;0.064;2024-01-25T05:22:10;99429.22;;;4.89;70.79
83691;BME280;73671;43.220;0.064;2024-01-25T05:24:35;99428.16;;;4.94;70.18
83691;BME280;73671;43.220;0.064;2024-01-25T05:27:01;99426.25;;;4.98;69.85
83691;BME280;73671;43.220;0.064;2024-01-25T05:29:27;99425.03;;;4.92;69.84
83691;BME280;73671;43.220;0.064;2024-01-25T05:31:52;99425.63;;;4.81;70.09
83691;BME280;73671;43.220;0.064;2024-01-25T05:34:18;99427.38;;;4.70;70.91
83691;BME280;73671;43.220;0.064;2024-01-25T05:36:43;99425.06;;;4.72;70.60
83691;BME280;73671;43.220;0.064;2024-01-25T05:39:08;99425.25;;;4.60;70.95
83691;BME280;73671;43.220;0.064;2024-01-25T05:41:34;99422.22;;;4.84;69.88
83691;BME280;73671;43.220;0.064;2024-01-25T05:44:00;99429.47;;;4.80;69.66
83691;BME280;73671;43.220;0.064;2024-01-25T05:46:25;99431.38;;;4.80;70.03
83691;BME280;73671;43.220;0.064;2024-01-25T05:48:51;99429.03;;;4.78;69.80
83691;BME280;73671;43.220;0.064;2024-01-25T05:51:16;99420.75;;;4.91;68.87
83691;BME280;73671;43.220;0.064;2024-01-25T05:53:41;99427.84;;;4.99;68.60
83691;BME280;73671;43.220;0.064;2024-01-25T05:56:07;99424.81;;;5.04;68.54
83691;BME280;73671;43.220;0.064;2024-01-25T05:58:33;99431.78;;;5.05;68.32
83691;BME280;73671;43.220;0.064;2024-01-25T06:00:58;99431.06;;;5.08;67.63
83691;BME280;73671;43.220;0.064;2024-01-25T06:03:23;99430.66;;;5.06;67.95
83691;BME280;73671;43.220;0.064;2024-01-25T06:05:49;99430.97;;;4.78;69.84
83691;BME280;73671;43.220;0.064;2024-01-25T06:08:14;99429.97;;;4.63;70.20
83691;BME280;73671;43.220;0.064;2024-01-25T06:10:39;99430.97;;;4.55;71.45
83691;BME280;73671;43.220;0.064;2024-01-25T06:13:05;99433.53;;;4.47;71.37
83691;BME280;73671;43.220;0.064;2024-01-25T06:15:30;99429.16;;;4.39;71.17
83691;BME280;73671;43.220;0.064;2024-01-25T06:17:56;99427.84;;;4.53;70.88
83691;BME280;73671;43.220;0.064;2024-01-25T06:20:22;99423.91;;;4.46;71.12
83691;BME280;73671;43.220;0.064;2024-01-25T06:22:48;99432.81;;;4.51;71.07
83691;BME280;73671;43.220;0.064;2024-01-25T06:25:14;99433.78;;;4.62;70.21
83691;BME280;73671;43.220;0.064;2024-01-25T06:27:39;99433.34;;;4.60;70.78
83691;BME280;73671;43.220;0.064;2024-01-25T06:30:05;99433.78;;;4.62;70.46
83691;BME280;73671;43.220;0.064;2024-01-25T06:32:31;99439.72;;;4.71;70.12
83691;BME280;73671;43.220;0.064;2024-01-25T06:34:56;99445.97;;;4.75;69.76
83691;BME280;73671;43.220;0.064;2024-01-25T06:37:22;99435.16;;;4.75;68.90
83691;BME280;73671;43.220;0.064;2024-01-25T06:39:47;99435.53;;;4.74;69.63
83691;BME280;73671;43.220;0.064;2024-01-25T06:42:13;99429.78;;;4.75;68.88
83691;BME280;73671;43.220;0.064;2024-01-25T06:44:38;99425.63;;;4.81;69.13
83691;BME280;73671;43.220;0.064;2024-01-25T06:47:04;99424.91;;;4.84;69.34
83691;BME280;73671;43.220;0.064;2024-01-25T06:49:29;99432.16;;;4.80;70.13
83691;BME280;73671;43.220;0.064;2024-01-25T06:51:54;99423.75;;;4.85;69.54
83691;BME280;73671;43.220;0.064;2024-01-25T06:54:20;99432.63;;;4.86;69.49
83691;BME280;73671;43.220;0.064;2024-01-25T06:56:45;99435.03;;;4.91;69.47
83691;BME280;73671;43.220;0.064;2024-01-25T06:59:10;99425.84;;;4.96;68.87
83691;BME280;73671;43.220;0.064;2024-01-25T07:01:36;99425.44;;;4.94;68.33
83691;BME280;73671;43.220;0.064;2024-01-25T07:04:01;99430.84;;;4.94;68.65
83691;BME280;73671;43.220;0.064;2024-01-25T07:06:28;99430.00;;;4.89;68.51
83691;BME280;73671;43.220;0.064;2024-01-25T07:08:54;99429.63;;;4.91;68.54
83691;BME280;73671;43.220;0.064;2024-01-25T07:11:19;99431.13;;;4.88;68.56
83691;BME280;73671;43.220;0.064;2024-01-25T07:13:45;99421.41;;;4.84;68.48
83691;BME280;73671;43.220;0.064;2024-01-25T07:16:10;99427.78;;;4.72;69.92
83691;BME280;73671;43.220;0.064;2024-01-25T07:18:35;99426.34;;;4.78;69.75
83691;BME280;73671;43.220;0.064;2024-01-25T07:21:01;99428.75;;;4.83;69.47
83691;BME280;73671;43.220;0.064;2024-01-25T07:23:29;99425.34;;;4.86;68.35
83691;BME280;73671;43.220;0.064;2024-01-25T07:25:55;99423.09;;;4.69;69.69
83691;BME280;73671;43.220;0.064;2024-01-25T07:28:20;99422.81;;;4.74;69.86
83691;BME280;73671;43.220;0.064;2024-01-25T07:30:49;99433.56;;;4.71;69.45
83691;BME280;73671;43.220;0.064;2024-01-25T07:33:15;99432.78;;;4.70;69.66
83691;BME280;73671;43.220;0.064;2024-01-25T07:35:41;99432.91;;;4.77;69.13
83691;BME280;73671;43.220;0.064;2024-01-25T07:38:14;99429.03;;;4.78;68.50
83691;BME280;73671;43.220;0.064;2024-01-25T07:40:39;99432.16;;;4.80;68.49
83691;BME280;73671;43.220;0.064;2024-01-25T07:43:04;99428.19;;;4.74;69.38
83691;BME280;73671;43.220;0.064;2024-01-25T07:45:31;99438.28;;;4.77;68.80
83691;BME280;73671;43.220;0.064;2024-01-25T07:47:57;99439.06;;;4.78;69.01
83691;BME280;73671;43.220;0.064;2024-01-25T07:50:22;99439.09;;;4.81;68.88
83691;BME280;73671;43.220;0.064;2024-01-25T07:52:48;99434.56;;;4.85;68.77
83691;BME280;73671;43.220;0.064;2024-01-25T07:55:15;99430.78;;;4.90;68.04
83691;BME280;73671;43.220;0.064;2024-01-25T07:57:40;99434.66;;;4.93;68.24
83691;BME280;73671;43.220;0.064;2024-01-25T08:00:07;99438.94;;;4.94;68.68
83691;BME280;73671;43.220;0.064;2024-01-25T08:02:34;99437.03;;;4.94;68.69
83691;BME280;73671;43.220;0.064;2024-01-25T08:04:59;99433.66;;;5.01;68.94
83691;BME280;73671;43.220;0.064;2024-01-25T08:07:24;99438.31;;;5.04;68.79
83691;BME280;73671;43.220;0.064;2024-01-25T08:09:50;99449.59;;;5.09;69.02
83691;BME280;73671;43.220;0.064;2024-01-25T08:12:17;99440.78;;;5.13;68.55
83691;BME280;73671;43.220;0.064;2024-01-25T08:14:43;99439.28;;;5.15;68.87
83691;BME280;73671;43.220;0.064;2024-01-25T08:17:09;99437.69;;;5.14;70.62
83691;BME280;73671;43.220;0.064;2024-01-25T08:19:34;99453.59;;;5.19;69.65
83691;BME280;73671;43.220;0.064;2024-01-25T08:22:00;99455.28;;;5.27;69.51
83691;BME280;73671;43.220;0.064;2024-01-25T08:24:25;99452.25;;;5.32;69.53
83691;BME280;73671;43.220;0.064;2024-01-25T08:26:50;99444.16;;;5.32;69.55
83691;BME280;73671;43.220;0.064;2024-01-25T08:29:16;99450.00;;;5.38;70.03
83691;BME280;73671;43.220;0.064;2024-01-25T08:31:41;99451.63;;;5.43;69.68
83691;BME280;73671;43.220;0.064;2024-01-25T08:34:07;99456.34;;;5.49;69.52
83691;BME280;73671;43.220;0.064;2024-01-25T08:36:32;99446.72;;;5.52;69.88
83691;BME280;73671;43.220;0.064;2024-01-25T08:38:57;99458.69;;;5.51;71.99
83691;BME280;73671;43.220;0.064;2024-01-25T08:41:23;99454.19;;;5.62;70.88
83691;BME280;73671;43.220;0.064;2024-01-25T08:43:49;99449.78;;;5.77;71.54
83691;BME280;73671;43.220;0.064;2024-01-25T08:46:14;99445.97;;;5.82;72.01
83691;BME280;73671;43.220;0.064;2024-01-25T08:48:41;99454.59;;;5.91;72.35
83691;BME280;73671;43.220;0.064;2024-01-25T08:51:06;99458.63;;;6.04;71.57
83691;BME280;73671;43.220;0.064;2024-01-25T08:53:33;99459.19;;;6.17;71.42
83691;BME280;73671;43.220;0.064;2024-01-25T08:55:58;99449.97;;;6.22;71.87
83691;BME280;73671;43.220;0.064;2024-01-25T08:58:24;99462.81;;;6.32;72.49
83691;BME280;73671;43.220;0.064;2024-01-25T09:00:50;99460.66;;;6.48;72.08
83691;BME280;73671;43.220;0.064;2024-01-25T09:03:15;99455.47;;;6.70;71.09
83691;BME280;73671;43.220;0.064;2024-01-25T09:05:40;99462.91;;;7.32;70.65
83691;BME280;73671;43.220;0.064;2024-01-25T09:08:11;99464.13;;;8.15;68.88
83691;BME280;73671;43.220;0.064;2024-01-25T09:10:40;99466.66;;;8.95;67.62
83691;BME280;73671;43.220;0.064;2024-01-25T09:13:06;99458.78;;;9.76;66.05
83691;BME280;73671;43.220;0.064;2024-01-25T09:15:31;99469.41;;;10.40;64.61
83691;BME280;73671;43.220;0.064;2024-01-25T09:17:56;99467.06;;;11.02;63.10
83691;BME280;73671;43.220;0.064;2024-01-25T09:20:22;99470.81;;;11.60;62.27
83691;BME280;73671;43.220;0.064;2024-01-25T09:22:47;99464.91;;;12.03;61.15
83691;BME280;73671;43.220;0.064;2024-01-25T09:25:13;99474.25;;;12.64;59.95
83691;BME280;73671;43.220;0.064;2024-01-25T09:27:38;99472.19;;;13.22;58.64
83691;BME280;73671;43.220;0.064;2024-01-25T09:30:05;99479.81;;;13.98;57.80
83691;BME280;73671;43.220;0.064;2024-01-25T09:32:30;99475.22;;;14.68;56.54
83691;BME280;73671;43.220;0.064;2024-01-25T09:34:56;99474.53;;;15.29;54.61
83691;BME280;73671;43.220;0.064;2024-01-25T09:37:21;99467.38;;;15.94;53.30
83691;BME280;73671;43.220;0.064;2024-01-25T09:39:49;99478.13;;;16.56;100.00
83691;BME280;73671;43.220;0.064;2024-01-25T09:42:14;71229.28;;;17.12;100.00
83691;BME280;73671;43.220;0.064;2024-01-25T09:44:40;99477.97;;;17.58;48.29
83691;BME280;73671;43.220;0.064;2024-01-25T09:47:05;99477.97;;;17.58;48.29
83691;BME280;73671;43.220;0.064;2024-01-25T09:49:33;99477.97;;;17.58;48.29
83691;BME280;73671;43.220;0.064;2024-01-25T09:52:01;99480.44;;;18.44;46.51
83691;BME280;73671;43.220;0.064;2024-01-25T09:54:32;99480.44;;;18.44;46.51
83691;BME280;73671;43.220;0.064;2024-01-25T09:56:59;99480.44;;;18.44;46.51
83691;BME280;73671;43.220;0.064;2024-01-25T09:59:26;99480.44;;;18.44;46.51
83691;BME280;73671;43.220;0.064;2024-01-25T10:01:53;99463.13;;;17.55;45.75
83691;BME280;73671;43.220;0.064;2024-01-25T10:04:18;99457.00;;;17.51;46.96
83691;BME280;73671;43.220;0.064;2024-01-25T10:06:47;99457.00;;;17.51;46.96
83691;BME280;73671;43.220;0.064;2024-01-25T10:09:12;99457.00;;;17.51;46.96
83691;BME280;73671;43.220;0.064;2024-01-25T10:11:39;99460.91;;;17.63;47.26
83691;BME280;73671;43.220;0.064;2024-01-25T10:14:04;99460.91;;;17.63;47.26
83691;BME280;73671;43.220;0.064;2024-01-25T10:16:30;99460.91;;;17.63;47.26
83691;BME280;73671;43.220;0.064;2024-01-25T10:18:56;99460.91;;;17.63;47.26
83691;BME280;73671;43.220;0.064;2024-01-25T10:21:21;99450.38;;;17.14;49.33
83691;BME280;73671;43.220;0.064;2024-01-25T10:23:48;99450.38;;;17.14;49.33
83691;BME280;73671;43.220;0.064;2024-01-25T10:26:13;99445.16;;;17.29;49.22
83691;BME280;73671;43.220;0.064;2024-01-25T10:28:39;99444.25;;;17.32;49.85
83691;BME280;73671;43.220;0.064;2024-01-25T10:31:05;99450.47;;;17.80;48.16
83691;BME280;73671;43.220;0.064;2024-01-25T10:33:31;99450.47;;;17.80;48.16
83691;BME280;73671;43.220;0.064;2024-01-25T10:35:57;99452.31;;;19.36;45.12
83691;BME280;73671;43.220;0.064;2024-01-25T10:38:34;99452.31;;;19.36;45.12
83691;BME280;73671;43.220;0.064;2024-01-25T10:41:02;99444.91;;;21.78;40.87
83691;BME280;73671;43.220;0.064;2024-01-25T10:43:28;99444.91;;;21.78;40.87
83691;BME280;73671;43.220;0.064;2024-01-25T10:45:56;71229.28;;;-146.39;100.00
83691;BME280;73671;43.220;0.064;2024-01-25T10:48:26;71229.28;;;-146.39;100.00
83691;BME280;73671;43.220;0.064;2024-01-25T10:50:53;71229.28;;;-146.39;100.00
83691;BME280;73671;43.220;0.064;2024-01-25T10:53:19;71229.28;;;-146.39;100.00
83691;BME280;73671;43.220;0.064;2024-01-25T10:55:45;71229.28;;;-146.39;100.00
83691;BME280;73671;43.220;0.064;2024-01-25T10:58:13;71229.28;;;-146.39;100.00
83691;BME280;73671;43.220;0.064;2024-01-25T11:00:39;71229.28;;;-146.39;100.00
83691;BME280;73671;43.220;0.064;2024-01-25T11:03:05;71229.28;;;-146.39;100.00
83691;BME280;73671;43.220;0.064;2024-01-25T11:05:31;71229.28;;;-146.39;100.00
83691;BME280;73671;43.220;0.064;2024-01-25T11:07:57;71229.28;;;-146.39;100.00
83691;BME280;73671;43.220;0.064;2024-01-25T11:10:25;71229.28;;;-146.39;100.00
83691;BME280;73671;43.220;0.064;2024-01-25T11:13:01;71229.28;;;-146.39;100.00
83691;BME280;73671;43.220;0.064;2024-01-25T11:15:33;71229.28;;;-146.39;100.00
83691;BME280;73671;43.220;0.064;2024-01-25T11:18:00;71229.28;;;-146.39;100.00
83691;BME280;73671;43.220;0.064;2024-01-25T11:20:27;71229.28;;;-146.39;100.00
83691;BME280;73671;43.220;0.064;2024-01-25T11:23:06;71229.28;;;-146.39;100.00
83691;BME280;73671;43.220;0.064;2024-01-25T11:25:34;71229.28;;;-146.39;100.00
83691;BME280;73671;43.220;0.064;2024-01-25T11:28:01;71229.28;;;-146.39;100.00
83691;BME280;73671;43.220;0.064;2024-01-25T11:30:29;71229.28;;;-146.39;100.00
83691;BME280;73671;43.220;0.064;2024-01-25T11:32:55;71229.28;;;-146.39;100.00
83691;BME280;73671;43.220;0.064;2024-01-25T11:35:21;71229.28;;;-146.39;100.00
83691;BME280;73671;43.220;0.064;2024-01-25T11:37:47;71229.28;;;-146.39;100.00
83691;BME280;73671;43.220;0.064;2024-01-25T11:40:14;71229.28;;;-146.39;100.00
83691;BME280;73671;43.220;0.064;2024-01-25T11:42:42;71229.28;;;-146.39;100.00
83691;BME280;73671;43.220;0.064;2024-01-25T11:45:10;71229.28;;;-146.39;100.00
83691;BME280;73671;43.220;0.064;2024-01-25T11:47:37;71229.28;;;-146.39;100.00
83691;BME280;73671;43.220;0.064;2024-01-25T11:50:03;71229.28;;;-146.39;100.00
83691;BME280;73671;43.220;0.064;2024-01-25T11:52:28;71229.28;;;-146.39;100.00
83691;BME280;73671;43.220;0.064;2024-01-25T11:54:54;71229.28;;;-146.39;100.00
83691;BME280;73671;43.220;0.064;2024-01-25T11:57:20;71229.28;;;-146.39;100.00
83691;BME280;73671;43.220;0.064;2024-01-25T11:59:46;71229.28;;;-146.39;100.00
83691;BME280;73671;43.220;0.064;2024-01-25T12:02:15;71229.28;;;-146.39;100.00
83691;BME280;73671;43.220;0.064;2024-01-25T12:04:40;71229.28;;;-146.39;100.00
83691;BME280;73671;43.220;0.064;2024-01-25T12:07:06;71229.28;;;-146.39;100.00
83691;BME280;73671;43.220;0.064;2024-01-25T12:09:32;71229.28;;;-146.39;100.00
83691;BME280;73671;43.220;0.064;2024-01-25T12:12:00;71229.28;;;-146.39;100.00
83691;BME280;73671;43.220;0.064;2024-01-25T12:14:25;71229.28;;;-146.39;100.00
83691;BME280;73671;43.220;0.064;2024-01-25T12:16:51;71229.28;;;-146.39;100.00
83691;BME280;73671;43.220;0.064;2024-01-25T12:19:16;71229.28;;;-146.39;100.00
83691;BME280;73671;43.220;0.064;2024-01-25T12:21:45;71229.28;;;-146.39;100.00
83691;BME280;73671;43.220;0.064;2024-01-25T12:24:10;71229.28;;;-146.39;100.00
83691;BME280;73671;43.220;0.064;2024-01-25T12:26:36;71229.28;;;-146.39;100.00
83691;BME280;73671;43.220;0.064;2024-01-25T12:29:02;71229.28;;;-146.39;100.00
83691;BME280;73671;43.220;0.064;2024-01-25T12:31:28;71229.28;;;-146.39;100.00
83691;BME280;73671;43.220;0.064;2024-01-25T12:33:54;71229.28;;;-146.39;100.00
83691;BME280;73671;43.220;0.064;2024-01-25T12:36:19;71229.28;;;-146.39;100.00
83691;BME280;73671;43.220;0.064;2024-01-25T12:38:45;71229.28;;;-146.39;100.00
83691;BME280;73671;43.220;0.064;2024-01-25T12:41:10;71229.28;;;-146.39;100.00
83691;BME280;73671;43.220;0.064;2024-01-25T12:43:36;71229.28;;;-146.39;100.00
83691;BME280;73671;43.220;0.064;2024-01-25T12:46:01;71229.28;;;-146.39;100.00
83691;BME280;73671;43.220;0.064;2024-01-25T12:48:26;71229.28;;;-146.39;100.00
83691;BME280;73671;43.220;0.064;2024-01-25T12:50:52;71229.28;;;-146.39;100.00
83691;BME280;73671;43.220;0.064;2024-01-25T12:53:17;71229.28;;;-146.39;100.00
83691;BME280;73671;43.220;0.064;2024-01-25T12:55:43;71229.28;;;-146.39;100.00